Forside
METAR-TAF:

METAR-TAF

Lufthavne :

Oelwein Municipal Airport

Oelwein, Iowa, USA

Breddekreds: 42-40-51N, længdekreds: 091-58-28W, højde: 328 m

Aktuelle vejr

Denne rapport blev lavet for 28 minutter siden, kl. 03:15 UTC
Vind 10 kt fra nordvest
Temperatur -6°C
Fugtighed 86%
Tryk 1020 hPa
Sigt: 16.1 km
Brudte skyer i en højde af 6000 ft
Overskyet i en højde af 7500 ft

METAR: KOLZ 280315Z AUTO 31010KT 10SM BKN060 OVC075 M06/M08 A3011 RMK A01

Tid: 21:43 (03:43 UTC)


TAF: fraværende

Vejrobservationer og prognoser fra mere end 4000 lufthavne (METAR og TAF).

De gule og røde prikker repræsenterer de meteorologiske stationer.

Flyt musen over at se navnet på stationen.

Så klik over at se vejr observationer og prognoser.

At skifte det kort: Klik på de grønne knapper med et sort kors for at zoome ind; på den grønne knap med en bindestreg for at zoome ud; eller på de grønne pile for tilstødende kort.


METAR-TAF: